Time;durP1;ratioP1;P1;durP2;ratioP2;P2;SDS_P1;SDS_P2;PMS_P1;PMS_P2;Temp;Humidity;BMP_temperature;BMP_pressure;BME280_temperature;BME280_humidity;BME280_pressure;Samples;Min_cycle;Max_cycle;Signal;HPM_P1;HPM_P2
2021/08/19 11:12:36;;;;;;;2.23;2.03;;;26.30;73.30;24.90;96836.00;;;;5102931;27;20302;-66
2021/08/19 11:15:25;;;;;;;3.00;1.90;;;26.00;71.40;25.00;96830.00;;;;5105496;28;20214;-66
2021/08/19 11:18:25;;;;;;;2.47;1.87;;;25.70;73.10;24.20;96808.00;;;;5096930;28;20209;-66
2021/08/19 11:21:14;;;;;;;1.93;1.73;;;25.30;71.80;25.50;96814.00;;;;5092744;28;20229;-66
2021/08/19 11:24:03;;;;;;;2.27;2.07;;;25.30;71.50;24.70;96822.00;;;;5101332;28;20202;-65
2021/08/19 11:27:04;;;;;;;2.27;1.70;;;25.10;71.80;25.10;96822.00;;;;5093890;28;20201;-66
2021/08/19 11:29:55;;;;;;;3.30;2.17;;;25.10;75.80;24.00;96808.00;;;;5101024;28;20202;-66
2021/08/19 11:33:11;;;;;;;3.70;2.20;;;25.00;74.50;23.90;96814.00;;;;5105458;28;20237;-65
2021/08/19 11:36:01;;;;;;;3.33;1.87;;;24.70;73.90;24.10;96787.00;;;;5102038;28;20284;-66
2021/08/19 11:38:57;;;;;;;1.50;1.40;;;24.60;74.80;24.40;96793.00;;;;5097165;28;20287;-66
2021/08/19 11:41:56;;;;;;;2.97;2.13;;;24.80;74.40;23.80;96806.00;;;;5097706;28;20694;-67
2021/08/19 11:44:47;;;;;;;3.90;1.93;;;24.40;72.90;23.50;96807.00;;;;5096717;28;20209;-66
2021/08/19 11:47:37;;;;;;;2.73;2.20;;;24.00;72.40;23.30;96818.00;;;;5096890;28;20204;-67
2021/08/19 11:50:27;;;;;;;2.40;1.63;;;23.90;74.40;23.30;96822.00;;;;5095637;28;20670;-66
2021/08/19 11:53:16;;;;;;;3.77;2.93;;;23.70;77.30;23.60;96816.00;;;;5098292;28;20551;-66
2021/08/19 11:56:14;;;;;;;5.43;2.17;;;23.60;77.10;23.80;96735.00;;;;5091548;28;20191;-66
2021/08/19 11:59:09;;;;;;;4.30;2.50;;;23.80;76.40;25.90;96732.00;;;;5090725;28;20211;-66
2021/08/19 12:01:58;;;;;;;2.63;2.03;;;24.40;78.40;26.80;96800.00;;;;5098791;28;20690;-66
2021/08/19 12:05:02;;;;;;;2.93;2.03;;;25.30;76.20;25.80;96782.00;;;;5101190;28;20207;-66
2021/08/19 12:07:51;;;;;;;4.43;2.30;;;25.50;72.40;26.50;96816.00;;;;5099620;28;20230;-66
2021/08/19 12:10:40;;;;;;;4.43;2.27;;;25.90;74.00;25.30;96816.00;;;;5093623;28;20232;-66
2021/08/19 12:13:29;;;;;;;5.30;2.93;;;25.90;71.80;24.90;96811.00;;;;5082197;28;20500;-66
2021/08/19 12:16:21;;;;;;;3.13;2.20;;;25.50;68.80;24.80;96809.00;;;;5095119;28;20202;-66
2021/08/19 12:19:14;;;;;;;4.57;2.03;;;25.30;69.80;24.30;96795.00;;;;5096659;28;20664;-66
2021/08/19 12:22:07;;;;;;;3.33;2.20;;;25.10;70.70;24.40;96796.00;;;;5090725;28;20583;-66
2021/08/19 12:24:56;;;;;;;2.70;2.50;;;25.00;74.80;24.60;96704.00;;;;5075809;28;20215;-66
2021/08/19 12:27:45;;;;;;;3.77;2.57;;;24.80;70.00;27.10;96791.00;;;;5077922;28;20212;-66
2021/08/19 12:30:34;;;;;;;2.90;2.27;;;25.40;75.10;26.60;96793.00;;;;5082832;28;20635;-66
2021/08/19 12:33:35;;;;;;;3.60;2.20;;;25.60;73.30;26.80;96785.00;;;;5089629;28;20621;-67
2021/08/19 12:36:33;;;;;;;2.90;2.13;;;25.80;73.10;26.70;96796.00;;;;5078747;28;20210;-67
2021/08/19 12:39:26;;;;;;;3.17;2.23;;;26.10;74.10;26.60;96796.00;;;;5082674;28;20226;-66
2021/08/19 12:42:15;;;;;;;2.53;1.93;;;26.20;73.30;26.70;96784.00;;;;5092177;28;20702;-66
2021/08/19 12:45:07;;;;;;;2.80;2.03;;;26.30;73.30;26.80;96781.00;;;;5082300;28;20197;-66
2021/08/19 12:48:03;;;;;;;2.37;1.90;;;26.40;72.10;26.60;96794.00;;;;5086841;28;20208;-66
2021/08/19 12:50:52;;;;;;;3.87;2.40;;;26.30;73.30;26.30;96782.00;;;;5086587;28;20240;-66
2021/08/19 12:54:07;;;;;;;3.63;2.30;;;26.30;72.50;26.60;96704.00;;;;5092967;28;20211;-66
2021/08/19 12:57:00;;;;;;;3.37;1.90;;;26.40;69.40;28.80;96703.00;;;;5081713;28;20588;-66
2021/08/19 12:59:49;;;;;;;3.50;2.23;;;27.00;70.90;29.80;96754.00;;;;5087312;28;20227;-66
2021/08/19 13:02:38;;;;;;;3.67;2.37;;;27.70;71.70;28.10;96794.00;;;;5081892;28;20222;-67
2021/08/19 13:05:29;;;;;;;3.65;1.98;;;27.80;68.30;28.00;96697.00;;;;5094883;28;20209;-67
2021/08/19 13:08:18;;;;;;;3.42;2.13;;;27.80;67.40;30.50;96700.00;;;;5088044;28;20227;-67
2021/08/19 13:11:07;;;;;;;4.55;2.22;;;28.40;68.70;31.00;96751.00;;;;5088518;28;20240;-66
2021/08/19 13:13:57;;;;;;;2.50;2.08;;;29.00;66.90;31.00;96729.00;;;;5083069;28;20215;-66
2021/08/19 13:16:46;;;;;;;2.50;2.25;;;29.40;65.70;31.80;96695.00;;;;5091224;27;20231;-66
2021/08/19 13:19:35;;;;;;;2.30;2.10;;;30.00;62.70;32.20;96699.00;;;;5083733;28;20202;-67
2021/08/19 13:22:24;;;;;;;4.97;2.28;;;30.60;62.40;31.60;96693.00;;;;5087984;28;20236;-66
2021/08/19 13:25:13;;;;;;;3.28;2.42;;;30.80;59.80;31.40;96768.00;;;;5083449;28;20683;-66
2021/08/19 13:28:02;;;;;;;2.47;2.22;;;31.00;58.40;30.80;96774.00;;;;5087847;28;20206;-66
2021/08/19 13:30:52;;;;;;;3.90;2.15;;;30.90;56.40;29.70;96774.00;;;;5084505;28;20215;-66
2021/08/19 13:33:41;;;;;;;2.67;2.42;;;30.40;54.00;28.90;96775.00;;;;5088550;28;20203;-66
2021/08/19 13:36:30;;;;;;;2.92;2.65;;;29.70;55.30;27.70;96769.00;;;;5095747;27;20226;-66
2021/08/19 13:39:20;;;;;;;2.97;2.38;;;29.10;55.90;26.70;96773.00;;;;5082464;28;20693;-66
2021/08/19 13:42:09;;;;;;;3.28;2.47;;;28.30;56.80;26.70;96778.00;;;;5084537;28;20626;-66
2021/08/19 13:44:58;;;;;;;2.80;2.45;;;27.60;58.90;26.70;96771.00;;;;5084011;28;20201;-66
2021/08/19 13:47:48;;;;;;;4.57;3.00;;;27.20;60.00;26.70;96773.00;;;;5078083;28;20225;-65
2021/08/19 13:50:37;;;;;;;3.03;2.40;;;26.90;62.40;26.20;96772.00;;;;5079469;28;20230;-66
2021/08/19 13:53:26;;;;;;;2.53;2.33;;;26.70;63.20;25.80;96771.00;;;;5083054;28;20234;-66
2021/08/19 13:56:15;;;;;;;2.43;2.23;;;26.40;63.00;25.80;96766.00;;;;5088161;28;20202;-66
2021/08/19 13:59:05;;;;;;;2.47;2.17;;;26.20;62.70;25.80;96764.00;;;;5080451;28;20206;-65
2021/08/19 14:01:54;;;;;;;3.57;1.90;;;26.00;63.80;25.80;96769.00;;;;5077130;28;20238;-65
2021/08/19 14:04:44;;;;;;;2.87;2.30;;;25.80;66.00;25.80;96768.00;;;;5081410;28;20209;-66
2021/08/19 14:07:33;;;;;;;2.70;2.20;;;25.70;69.10;25.70;96762.00;;;;5083962;28;20204;-66
2021/08/19 14:10:22;;;;;;;3.00;2.10;;;25.60;70.90;25.50;96768.00;;;;5084699;28;20212;-66
2021/08/19 14:13:11;;;;;;;3.10;2.57;;;25.40;73.00;25.20;96772.00;;;;5079818;28;20312;-65
2021/08/19 14:16:00;;;;;;;5.13;2.50;;;25.30;74.40;25.20;96770.00;;;;5087640;28;20207;-66
2021/08/19 14:18:49;;;;;;;2.60;2.23;;;25.10;76.50;25.30;96769.00;;;;5087114;28;20228;-66
2021/08/19 14:21:40;;;;;;;2.83;2.37;;;25.10;79.20;25.10;96763.00;;;;5087868;28;20231;-65
2021/08/19 14:24:31;;;;;;;2.57;1.80;;;25.00;81.60;25.10;96767.00;;;;5079337;28;20237;-66
2021/08/19 14:27:20;;;;;;;3.37;2.17;;;25.00;84.90;25.10;96763.00;;;;5090953;28;20840;-66
2021/08/19 14:30:12;;;;;;;4.00;2.57;;;24.90;87.20;25.20;96765.00;;;;5088845;28;20206;-66
2021/08/19 14:33:01;;;;;;;3.03;2.07;;;25.00;88.50;25.40;96751.00;;;;5083045;28;20604;-66
2021/08/19 14:35:51;;;;;;;4.80;2.33;;;25.00;89.60;26.30;96752.00;;;;5082349;28;20258;-66
2021/08/19 14:38:42;;;;;;;4.50;3.63;;;25.40;90.10;26.30;96748.00;;;;5088721;28;20697;-66
2021/08/19 14:41:31;;;;;;;4.83;2.77;;;25.60;88.30;26.30;96753.00;;;;5085884;28;20215;-66
2021/08/19 14:44:20;;;;;;;3.90;2.03;;;25.80;85.80;26.30;96755.00;;;;5087966;28;20202;-66
2021/08/19 14:47:09;;;;;;;3.73;2.00;;;25.90;83.20;26.20;96752.00;;;;5084582;28;20198;-66
2021/08/19 14:49:57;;;;;;;3.70;2.80;;;25.90;83.00;25.90;96760.00;;;;5090079;28;20658;-66
2021/08/19 14:52:46;;;;;;;2.90;2.20;;;25.80;78.30;25.80;96755.00;;;;5085696;28;20225;-65
2021/08/19 14:55:38;;;;;;;4.50;2.23;;;25.60;81.80;25.80;96754.00;;;;5094439;28;20566;-65
2021/08/19 14:58:27;;;;;;;2.13;1.93;;;25.60;83.70;25.80;96755.00;;;;5088117;28;20202;-65
2021/08/19 15:01:15;;;;;;;3.17;2.10;;;25.50;83.90;25.80;96746.00;;;;5080906;28;20225;-65
2021/08/19 15:04:05;;;;;;;2.50;1.87;;;25.50;83.50;28.10;96700.00;;;;5093173;28;20205;-65
2021/08/19 15:06:54;;;;;;;2.27;2.07;;;26.20;85.50;29.10;96724.00;;;;5091423;28;20593;-65
2021/08/19 15:09:43;;;;;;;3.23;2.23;;;27.10;82.50;30.00;96686.00;;;;5087762;28;20212;-65
2021/08/19 15:12:33;;;;;;;2.47;2.10;;;28.20;74.60;31.00;96689.00;;;;5084672;28;20715;-65
2021/08/19 15:15:22;;;;;;;3.47;2.40;;;29.40;69.40;31.70;96692.00;;;;5085208;28;20207;-65
2021/08/19 15:18:11;;;;;;;2.50;2.08;;;30.10;64.70;32.30;96699.00;;;;5083739;28;20217;-66
2021/08/19 15:21:01;;;;;;;2.20;2.00;;;30.90;63.10;32.80;96692.00;;;;5076182;28;20214;-66
2021/08/19 15:23:50;;;;;;;3.15;2.28;;;31.70;62.40;32.80;96712.00;;;;5087021;28;20206;-65
2021/08/19 15:26:40;;;;;;;4.45;2.40;;;32.30;59.10;33.70;96685.00;;;;5083773;28;20201;-66
2021/08/19 15:29:30;;;;;;;2.92;2.35;;;32.60;57.80;33.70;96697.00;;;;5078160;28;20221;-66
2021/08/19 15:32:19;;;;;;;3.78;3.00;;;33.10;57.20;33.60;96692.00;;;;5085347;28;20367;-66
2021/08/19 15:35:10;;;;;;;3.40;3.08;;;33.40;55.30;33.90;96694.00;;;;5082664;28;20203;-66
2021/08/19 15:38:01;;;;;;;3.25;2.30;;;33.70;53.80;34.10;96699.00;;;;5084741;28;20195;-66
2021/08/19 15:40:50;;;;;;;2.40;2.10;;;33.90;54.90;34.20;96699.00;;;;5082369;28;20999;-66
2021/08/19 15:43:40;;;;;;;2.25;2.05;;;34.10;54.00;33.70;96691.00;;;;5086406;28;20191;-66
2021/08/19 15:46:31;;;;;;;2.67;2.05;;;34.20;53.80;33.30;96697.00;;;;5078362;28;20211;-66
2021/08/19 15:49:20;;;;;;;3.03;2.13;;;34.00;52.80;33.30;96705.00;;;;5079957;28;20206;-67
2021/08/19 15:52:09;;;;;;;3.80;2.17;;;33.70;52.30;32.60;96711.00;;;;5077777;28;20219;-67
2021/08/19 15:54:59;;;;;;;3.47;1.98;;;33.30;53.60;32.60;96703.00;;;;5078629;28;20273;-67
2021/08/19 15:57:48;;;;;;;3.08;2.05;;;33.00;54.40;33.00;96715.00;;;;5084174;28;20244;-67
2021/08/19 16:00:37;;;;;;;3.35;2.35;;;33.10;55.00;33.30;96712.00;;;;5082091;28;20618;-66
2021/08/19 16:03:27;;;;;;;2.88;2.20;;;33.30;55.40;33.60;96708.00;;;;5086380;28;20333;-67
2021/08/19 16:06:16;;;;;;;3.35;1.88;;;33.60;55.00;34.00;96711.00;;;;5079286;28;20199;-67
2021/08/19 16:09:05;;;;;;;2.03;1.77;;;33.90;55.20;33.40;96715.00;;;;5076886;28;20686;-66
2021/08/19 16:11:55;;;;;;;3.17;2.00;;;34.10;55.00;33.70;96716.00;;;;5087005;28;20234;-67
2021/08/19 16:14:49;;;;;;;2.50;1.85;;;34.20;54.70;33.50;96740.00;;;;5093553;28;20272;-67
2021/08/19 16:17:40;;;;;;;3.03;2.40;;;34.20;54.00;31.80;96762.00;;;;5081500;28;20199;-67
2021/08/19 16:20:30;;;;;;;2.80;2.40;;;33.80;54.10;30.40;96759.00;;;;5078190;28;20239;-67
2021/08/19 16:23:19;;;;;;;4.55;2.55;;;32.90;55.20;29.20;96755.00;;;;5076331;28;20206;-67
2021/08/19 16:26:08;;;;;;;4.05;3.25;;;31.80;56.50;28.20;96762.00;;;;5088328;28;20194;-67
2021/08/19 16:28:57;;;;;;;2.70;2.42;;;30.60;58.30;27.30;96756.00;;;;5088796;28;20198;-66
2021/08/19 16:31:46;;;;;;;4.15;2.25;;;29.60;60.00;26.60;96761.00;;;;5089807;28;20230;-67
2021/08/19 16:34:34;;;;;;;4.35;2.50;;;28.60;62.10;26.20;96754.00;;;;5078868;28;20230;-66
2021/08/19 16:37:25;;;;;;;2.13;1.97;;;27.80;65.10;25.70;96754.00;;;;5084798;28;20204;-67
2021/08/19 16:40:15;;;;;;;3.93;2.33;;;27.00;67.50;25.30;96753.00;;;;5086735;28;20201;-66
2021/08/19 16:43:04;;;;;;;7.23;2.80;;;26.40;69.60;24.90;96746.00;;;;5085672;28;20579;-66
2021/08/19 16:45:53;;;;;;;3.70;2.43;;;25.90;71.10;24.60;96754.00;;;;5079497;28;20189;-66
2021/08/19 16:48:41;;;;;;;2.63;2.20;;;25.40;73.50;24.20;96754.00;;;;5084261;28;20685;-66
2021/08/19 16:51:31;;;;;;;8.63;2.80;;;25.00;75.30;24.00;96752.00;;;;5085620;28;20225;-66
2021/08/19 16:54:21;;;;;;;4.57;2.60;;;24.70;77.50;23.70;96763.00;;;;5086003;28;20220;-67
2021/08/19 16:57:10;;;;;;;5.57;3.00;;;24.40;79.90;23.20;96757.00;;;;5083883;28;20601;-67
2021/08/19 16:59:59;;;;;;;4.47;2.57;;;24.00;78.90;22.50;96755.00;;;;5081664;28;20214;-69
2021/08/19 17:02:48;;;;;;;3.77;3.03;;;23.50;80.90;22.10;96758.00;;;;5090763;28;20624;-69
2021/08/19 17:05:37;;;;;;;4.63;2.43;;;23.00;85.10;21.90;96754.00;;;;5088387;28;20697;-66
2021/08/19 17:08:27;;;;;;;5.83;2.83;;;22.60;88.50;21.90;96766.00;;;;5085083;28;20211;-66
2021/08/19 17:11:17;;;;;;;4.47;2.20;;;22.30;90.10;22.00;96763.00;;;;5083149;28;20246;-66
2021/08/19 17:14:07;;;;;;;3.17;2.30;;;22.10;91.60;22.10;96767.00;;;;5085713;28;21056;-66
2021/08/19 17:16:57;;;;;;;3.10;2.27;;;22.00;92.70;22.00;96766.00;;;;5083965;28;20222;-68
2021/08/19 17:19:46;;;;;;;7.43;2.30;;;21.90;94.30;22.00;96768.00;;;;5088583;28;20202;-69
2021/08/19 17:22:35;;;;;;;4.63;1.97;;;21.90;96.20;22.00;96770.00;;;;5087443;28;20222;-68
2021/08/19 17:25:24;;;;;;;6.33;2.10;;;21.80;97.60;21.90;96767.00;;;;5082364;28;20195;-66
2021/08/19 17:28:15;;;;;;;5.27;2.53;;;21.80;99.50;21.80;96769.00;;;;5080320;28;20694;-66
2021/08/19 17:31:04;;;;;;;4.43;1.93;;;21.70;99.90;21.80;96771.00;;;;5076343;28;20222;-67
2021/08/19 17:33:56;;;;;;;6.30;3.60;;;21.70;99.90;21.70;96767.00;;;;5078655;28;20268;-67
2021/08/19 17:36:45;;;;;;;2.30;2.03;;;21.70;99.90;21.60;96779.00;;;;5081307;28;20191;-67
2021/08/19 17:39:34;;;;;;;11.17;4.03;;;21.60;99.90;21.60;96773.00;;;;5084093;28;20208;-67
2021/08/19 17:42:23;;;;;;;6.43;2.97;;;21.50;99.90;21.50;96771.00;;;;5097905;28;20571;-67
2021/08/19 17:45:13;;;;;;;3.90;2.73;;;21.40;99.90;21.40;96772.00;;;;5084763;28;20217;-69
2021/08/19 17:48:02;;;;;;;3.80;2.73;;;21.40;99.90;21.30;96765.00;;;;5081479;28;20203;-67
2021/08/19 17:50:51;;;;;;;4.50;1.93;;;21.30;99.90;21.20;96773.00;;;;5079879;28;20220;-65
2021/08/19 17:53:41;;;;;;;6.97;2.57;;;21.20;99.90;20.90;96772.00;;;;5082434;28;20233;-66
2021/08/19 17:56:29;;;;;;;4.60;2.73;;;21.20;99.90;20.50;96780.00;;;;5089383;28;20225;-67
2021/08/19 17:59:18;;;;;;;3.53;2.63;;;21.40;99.90;20.70;96769.00;;;;5082341;28;20543;-65
2021/08/19 18:02:11;;;;;;;5.73;2.40;;;20.80;99.90;20.70;96770.00;;;;5072865;28;20223;-66
2021/08/19 18:05:00;;;;;;;3.97;2.57;;;20.70;99.90;20.60;96775.00;;;;5096178;27;20206;-66
2021/08/19 18:07:50;;;;;;;3.03;2.10;;;20.60;99.90;20.60;96778.00;;;;5095984;27;20205;-66
2021/08/19 18:10:39;;;;;;;3.43;2.60;;;20.60;99.90;20.60;96784.00;;;;5095076;27;20230;-66
2021/08/19 18:13:27;;;;;;;3.83;2.20;;;20.50;99.90;20.50;96792.00;;;;5095827;28;20243;-66
2021/08/19 18:16:19;;;;;;;3.27;2.40;;;20.40;99.90;20.50;96793.00;;;;5101918;27;20214;-66
2021/08/19 18:19:09;;;;;;;4.57;2.60;;;20.40;99.90;20.50;96800.00;;;;5077462;28;20191;-66
2021/08/19 18:21:59;;;;;;;3.50;2.20;;;20.40;99.90;20.50;96810.00;;;;5076952;28;20693;-66
2021/08/19 18:24:48;;;;;;;5.40;2.50;;;20.30;99.90;20.30;96809.00;;;;5083325;28;20195;-66
2021/08/19 18:27:37;;;;;;;5.70;2.50;;;20.30;99.90;20.20;96807.00;;;;5082025;28;20222;-66
2021/08/19 18:30:26;;;;;;;4.83;2.87;;;20.20;99.90;20.20;96810.00;;;;5081591;28;20212;-66
2021/08/19 18:33:15;;;;;;;4.97;2.90;;;20.10;99.90;20.30;96807.00;;;;5071834;28;20244;-66
2021/08/19 18:36:06;;;;;;;3.43;2.40;;;20.10;99.90;20.10;96821.00;;;;5078984;28;20219;-66
2021/08/19 18:38:55;;;;;;;8.77;2.70;;;20.10;99.90;19.90;96832.00;;;;5084564;28;20213;-66
2021/08/19 18:41:44;;;;;;;2.80;2.23;;;19.90;99.90;19.70;96826.00;;;;5084797;28;20216;-66
2021/08/19 18:44:35;;;;;;;4.30;2.40;;;19.80;99.90;19.50;96830.00;;;;5082649;28;20199;-66
2021/08/19 18:47:29;;;;;;;7.43;3.20;;;19.70;99.90;19.50;96837.00;;;;5075583;28;20199;-66
2021/08/19 18:50:21;;;;;;;3.20;2.63;;;19.60;99.90;19.50;96848.00;;;;5070043;28;20236;-66
2021/08/19 18:53:11;;;;;;;6.07;2.10;;;19.50;99.90;19.40;96850.00;;;;5080331;28;20576;-66
2021/08/19 18:56:01;;;;;;;5.17;2.47;;;19.40;99.90;19.40;96848.00;;;;5079065;28;20230;-66
2021/08/19 18:58:50;;;;;;;2.97;2.67;;;19.40;99.90;19.30;96859.00;;;;5082345;28;20199;-66
2021/08/19 19:01:40;;;;;;;4.13;3.00;;;19.30;99.90;19.20;96859.00;;;;5084951;28;20223;-66
2021/08/19 19:04:29;;;;;;;4.53;2.40;;;19.20;99.90;19.00;96864.00;;;;5078568;28;20556;-67
2021/08/19 19:07:18;;;;;;;3.97;3.20;;;19.20;99.90;18.90;96868.00;;;;5080912;28;20208;-67
2021/08/19 19:10:09;;;;;;;5.00;2.80;;;19.00;99.90;18.90;96865.00;;;;5084997;28;20192;-66
2021/08/19 19:12:59;;;;;;;6.20;2.73;;;19.00;99.90;18.60;96871.00;;;;5086296;28;20713;-67
2021/08/19 19:15:50;;;;;;;5.70;3.17;;;18.90;99.90;18.20;96874.00;;;;5083040;28;20220;-66
2021/08/19 19:18:39;;;;;;;7.00;2.80;;;18.70;99.90;18.20;96885.00;;;;5081846;28;20276;-66
2021/08/19 19:21:28;;;;;;;4.53;2.70;;;18.50;99.90;18.20;96881.00;;;;5077591;28;20219;-67
2021/08/19 19:24:17;;;;;;;4.93;2.50;;;18.40;99.90;18.30;96876.00;;;;5078297;28;20199;-66
2021/08/19 19:27:07;;;;;;;4.23;2.67;;;18.40;99.90;18.20;96883.00;;;;5080943;28;20704;-67
2021/08/19 19:30:02;;;;;;;5.23;2.93;;;18.30;99.90;18.30;96886.00;;;;5087388;28;20195;-66
2021/08/19 19:32:53;;;;;;;4.03;2.33;;;18.30;99.90;18.20;96887.00;;;;5083904;28;20203;-66
2021/08/19 19:35:43;;;;;;;5.33;3.07;;;18.20;99.90;18.20;96878.00;;;;5082210;28;20234;-66
2021/08/19 19:38:33;;;;;;;3.50;2.80;;;18.20;99.90;18.10;96888.00;;;;5090994;28;20214;-66
2021/08/19 19:41:21;;;;;;;4.70;3.17;;;18.10;99.90;18.00;96886.00;;;;5075489;28;20238;-66
2021/08/19 19:44:12;;;;;;;4.47;2.63;;;18.10;99.90;17.50;96884.00;;;;5088857;28;20209;-66
2021/08/19 19:47:00;;;;;;;4.73;3.33;;;18.00;99.90;17.50;96883.00;;;;5089561;28;20203;-66
2021/08/19 19:49:49;;;;;;;4.37;3.43;;;17.80;99.90;17.50;96886.00;;;;5087557;28;20209;-66
2021/08/19 19:52:38;;;;;;;3.63;2.73;;;17.70;99.90;17.40;96885.00;;;;5081892;28;20609;-66
2021/08/19 19:55:27;;;;;;;3.20;2.37;;;17.60;99.90;17.30;96888.00;;;;5084603;28;20319;-66
2021/08/19 19:58:16;;;;;;;3.83;3.43;;;17.50;99.90;17.20;96883.00;;;;5088607;28;20206;-66
2021/08/19 20:01:06;;;;;;;8.47;3.57;;;17.50;99.90;16.90;96872.00;;;;5078162;28;20215;-67
2021/08/19 20:03:55;;;;;;;8.30;3.00;;;17.30;99.90;17.10;96888.00;;;;5087043;28;20673;-66
2021/08/19 20:06:46;;;;;;;5.40;3.10;;;17.20;99.90;16.80;96885.00;;;;5075598;28;20212;-66
2021/08/19 20:09:35;;;;;;;5.13;2.47;;;17.10;99.90;16.70;96880.00;;;;5080982;28;20207;-66
2021/08/19 20:12:24;;;;;;;3.47;3.17;;;17.00;99.90;16.80;96881.00;;;;5087385;28;20223;-66
2021/08/19 20:15:13;;;;;;;6.70;2.90;;;16.90;99.90;17.00;96873.00;;;;5088527;28;20215;-66
2021/08/19 20:18:05;;;;;;;3.83;2.73;;;16.90;99.90;17.20;96884.00;;;;5088717;28;20195;-66
2021/08/19 20:20:54;;;;;;;3.27;2.67;;;17.00;99.90;17.10;96880.00;;;;5076052;28;20674;-66
2021/08/19 20:23:43;;;;;;;5.73;3.13;;;17.00;99.90;17.00;96876.00;;;;5086674;28;20188;-66
2021/08/19 20:26:32;;;;;;;4.63;3.10;;;17.10;99.90;17.10;96881.00;;;;5088323;28;20569;-66
2021/08/19 20:29:21;;;;;;;4.50;3.33;;;17.00;99.90;16.80;96884.00;;;;5088674;28;20206;-66
2021/08/19 20:32:10;;;;;;;5.57;2.73;;;17.00;99.90;16.80;96882.00;;;;5075511;28;20596;-66
2021/08/19 20:35:01;;;;;;;3.40;3.10;;;16.90;99.90;16.60;96880.00;;;;5087678;28;20190;-67
2021/08/19 20:37:50;;;;;;;4.27;3.27;;;16.80;99.90;16.50;96882.00;;;;5105406;28;20202;-66
2021/08/19 20:40:39;;;;;;;4.30;3.23;;;16.70;99.90;16.50;96886.00;;;;5107747;28;20222;-66
2021/08/19 20:43:28;;;;;;;4.47;3.97;;;16.60;99.90;16.80;96892.00;;;;5097009;28;20213;-66
2021/08/19 20:46:19;;;;;;;6.33;4.07;;;16.70;99.90;16.70;96890.00;;;;5087689;28;20203;-66
2021/08/19 20:49:08;;;;;;;4.07;3.30;;;16.70;99.90;16.40;96890.00;;;;5087058;28;20206;-66
2021/08/19 20:51:58;;;;;;;5.40;3.17;;;16.60;99.90;16.30;96897.00;;;;5087593;28;20585;-66
2021/08/19 20:54:47;;;;;;;6.93;3.20;;;16.60;99.90;16.40;96894.00;;;;5088649;28;20697;-66
2021/08/19 20:57:36;;;;;;;3.27;2.97;;;16.50;99.90;16.60;96897.00;;;;5087586;28;20194;-67
2021/08/19 21:00:25;;;;;;;5.47;2.40;;;16.50;99.90;16.80;96899.00;;;;5088362;28;20198;-66
2021/08/19 21:03:13;;;;;;;3.47;3.17;;;17.30;99.90;16.70;96901.00;;;;5087202;28;20202;-66
2021/08/19 21:06:03;;;;;;;3.73;3.33;;;16.60;99.90;16.60;96900.00;;;;5084558;28;20221;-66
2021/08/19 21:08:53;;;;;;;5.23;3.87;;;16.60;99.90;16.20;96895.00;;;;5091302;28;20202;-66
2021/08/19 21:11:42;;;;;;;4.47;3.07;;;16.50;99.90;16.20;96903.00;;;;5103529;28;20241;-66
2021/08/19 21:14:30;;;;;;;5.57;4.33;;;16.40;99.90;15.90;96893.00;;;;5105243;28;20561;-66
2021/08/19 21:17:19;;;;;;;5.77;3.37;;;16.30;99.90;15.80;96900.00;;;;5103635;28;20605;-66
2021/08/19 21:20:10;;;;;;;4.00;3.17;;;16.20;99.90;16.00;96900.00;;;;5105284;28;20213;-66
2021/08/19 21:22:59;;;;;;;8.80;4.57;;;16.20;99.90;16.10;96891.00;;;;5104615;28;20209;-66
2021/08/19 21:25:50;;;;;;;7.00;4.43;;;16.10;99.90;16.30;96903.00;;;;5107231;28;20210;-66
2021/08/19 21:28:39;;;;;;;6.50;4.60;;;16.10;99.90;16.30;96908.00;;;;5107893;28;20198;-66
2021/08/19 21:31:28;;;;;;;6.03;4.20;;;16.20;99.90;16.40;96902.00;;;;5107653;28;20705;-66
2021/08/19 21:34:17;;;;;;;4.40;4.00;;;16.20;99.90;16.60;96908.00;;;;5106893;28;20202;-66
2021/08/19 21:37:06;;;;;;;4.60;3.43;;;16.30;99.90;16.40;96905.00;;;;5106641;28;20214;-66
2021/08/19 21:39:55;;;;;;;4.27;3.37;;;16.30;99.90;16.30;96906.00;;;;5107752;28;20206;-66
2021/08/19 21:42:45;;;;;;;5.93;3.30;;;16.30;99.90;16.20;96907.00;;;;5104099;28;20727;-66
2021/08/19 21:45:34;;;;;;;6.43;3.37;;;16.30;99.90;16.20;96908.00;;;;5106646;28;20206;-66
2021/08/19 21:48:23;;;;;;;3.87;2.97;;;16.30;99.90;16.30;96913.00;;;;5086990;28;20586;-67
2021/08/19 21:51:15;;;;;;;5.90;3.43;;;16.20;99.90;16.30;96914.00;;;;5088966;28;20229;-66
2021/08/19 21:54:04;;;;;;;4.90;3.30;;;16.30;99.90;16.20;96916.00;;;;5086470;28;20215;-66
2021/08/19 21:56:53;;;;;;;4.90;3.60;;;16.30;99.90;16.40;96927.00;;;;5104911;28;20222;-66
2021/08/19 21:59:45;;;;;;;4.70;3.43;;;16.30;99.90;16.40;96928.00;;;;5101639;28;20198;-66
2021/08/19 22:02:34;;;;;;;5.90;3.27;;;16.30;99.90;16.40;96922.00;;;;5087518;28;20223;-66
2021/08/19 22:05:24;;;;;;;3.93;2.83;;;16.30;99.90;16.30;96930.00;;;;5105733;28;20626;-66
2021/08/19 22:08:12;;;;;;;3.30;3.00;;;16.30;99.90;16.20;96934.00;;;;5104731;28;20198;-66
2021/08/19 22:11:01;;;;;;;6.17;3.80;;;16.30;99.90;16.30;96934.00;;;;5087299;28;20334;-66
2021/08/19 22:13:50;;;;;;;4.83;3.30;;;16.30;99.90;16.20;96929.00;;;;5086059;28;20199;-66
2021/08/19 22:16:41;;;;;;;7.13;3.87;;;16.30;99.90;16.10;96930.00;;;;5087230;28;20215;-66
2021/08/19 22:19:29;;;;;;;3.57;3.27;;;16.20;99.90;16.20;96927.00;;;;5085931;28;20672;-66
2021/08/19 22:22:21;;;;;;;4.67;2.53;;;16.20;99.90;16.40;96922.00;;;;5085898;28;20238;-66
2021/08/19 22:25:10;;;;;;;4.87;2.80;;;16.30;99.90;16.60;96929.00;;;;5086817;28;20206;-66
2021/08/19 22:27:59;;;;;;;5.30;3.20;;;16.30;99.90;16.70;96919.00;;;;5085488;28;20211;-66
2021/08/19 22:30:48;;;;;;;6.63;3.63;;;16.40;99.90;16.60;96921.00;;;;5087683;28;20234;-66
2021/08/19 22:33:39;;;;;;;4.13;2.97;;;16.40;99.90;16.40;96921.00;;;;5087083;28;20260;-66
2021/08/19 22:36:27;;;;;;;5.03;3.43;;;16.40;99.90;16.30;96930.00;;;;5085201;28;20227;-66
2021/08/19 22:39:16;;;;;;;4.63;2.83;;;16.40;99.90;16.30;96921.00;;;;5085437;28;20577;-66
2021/08/19 22:42:06;;;;;;;4.37;2.80;;;16.40;99.90;16.10;96926.00;;;;5085662;28;20704;-66
2021/08/19 22:44:55;;;;;;;4.77;3.00;;;16.30;99.90;16.10;96920.00;;;;5088352;28;20227;-67
2021/08/19 22:47:44;;;;;;;4.63;3.30;;;16.20;99.90;16.20;96921.00;;;;5079164;28;20199;-66
2021/08/19 22:50:34;;;;;;;4.73;3.23;;;16.20;99.90;16.40;96922.00;;;;5085060;28;20195;-66
2021/08/19 22:53:23;;;;;;;3.57;2.53;;;16.20;99.90;16.40;96922.00;;;;5084672;28;20205;-67
2021/08/19 22:56:15;;;;;;;6.27;3.83;;;16.20;99.90;16.40;96925.00;;;;5085660;28;20250;-66
2021/08/19 22:59:04;;;;;;;7.30;3.57;;;16.30;99.90;16.50;96920.00;;;;5084324;28;20551;-66
2021/08/19 23:01:53;;;;;;;10.40;4.23;;;16.30;99.90;16.40;96926.00;;;;5089613;28;20231;-66
2021/08/19 23:04:42;;;;;;;4.53;3.07;;;16.40;99.90;16.00;96923.00;;;;5101348;28;20556;-66
2021/08/19 23:07:32;;;;;;;4.70;3.43;;;16.30;99.90;16.00;96916.00;;;;5110989;27;20695;-66
2021/08/19 23:10:21;;;;;;;4.00;3.50;;;16.20;99.90;15.80;96913.00;;;;5085004;28;20581;-66
2021/08/19 23:13:11;;;;;;;4.50;2.83;;;16.10;99.90;16.00;96918.00;;;;5085854;28;20199;-66
2021/08/19 23:16:00;;;;;;;5.53;3.33;;;16.10;99.90;16.20;96916.00;;;;5085991;28;20201;-66
2021/08/19 23:18:49;;;;;;;5.73;3.40;;;16.10;99.90;16.30;96916.00;;;;5071879;28;20195;-66
2021/08/19 23:21:37;;;;;;;5.17;3.67;;;16.10;99.90;16.40;96916.00;;;;5096796;28;20232;-66
2021/08/19 23:24:28;;;;;;;4.13;3.53;;;16.10;99.90;16.40;96912.00;;;;5124994;28;20228;-66
2021/08/19 23:27:16;;;;;;;6.57;4.70;;;16.20;99.90;16.50;96913.00;;;;5126396;28;20194;-66
2021/08/19 23:30:07;;;;;;;4.63;3.60;;;16.20;99.90;16.20;96919.00;;;;5126966;28;20209;-66
2021/08/19 23:32:56;;;;;;;8.90;3.57;;;16.30;99.90;16.00;96912.00;;;;5126046;28;20193;-66
2021/08/19 23:35:45;;;;;;;3.80;2.97;;;16.20;99.90;15.90;96920.00;;;;5125880;28;20193;-66
2021/08/19 23:38:34;;;;;;;5.60;3.50;;;16.10;99.90;16.00;96918.00;;;;5119885;28;20217;-66
2021/08/19 23:41:24;;;;;;;4.00;3.47;;;16.10;99.90;16.10;96919.00;;;;5124709;28;20217;-66
2021/08/19 23:44:13;;;;;;;3.43;2.87;;;16.10;99.90;16.20;96901.00;;;;5125765;28;20198;-66
2021/08/19 23:47:02;;;;;;;6.23;3.30;;;16.00;99.90;16.30;96912.00;;;;5083070;28;20226;-66